If you wish to contribute or participate in the discussions about articles you are invited to join SKYbrary as a registered user

 Actions

Kimberley Airport

From SKYbrary Wiki

FAKM
Airport
ICAO: FAKM – IATA: KIM
Summary
Name Kimberley Airport
Region Africa
Territory South Africa ZA.gif
Location , Northern Cape
Serving Kimberley
Elevation 1,203.96 m
3,950 ft
3,950 ft1,203.96 m
Coordinates 28° 48' 10.20" S, 24° 45' 54.60" E
Runways
Designator Length Width Surface ROPS
2/20 3000 m9,842.52 ft
46 m150.919 ft
ASP /
10/28 2439 m8,001.969 ft
45 m147.638 ft
ASP /


METAR
Observation FAKM 232000Z AUTO 04006KT //// // ////// 18/02 Q1023
Station Kimberley, Kim-Apt
Date/Time 23 September 2020 20:00:00
Wind direction 40°
Wind speed 06 kts
Lowest cloud amount n/a
Temperature 18°C
Dew point 2°C
Humidity 34%
QNH 1023 hPa
Weather condition n/a